sensor_id;sensor_type;location;lat;lon;timestamp;pressure;altitude;pressure_sealevel;temperature
53512;BMP280;39392;52.832;13.816;2023-10-13T00:01:55;101276.34;;;22.60
53512;BMP280;39392;52.832;13.816;2023-10-13T00:04:22;101272.59;;;22.61
53512;BMP280;39392;52.832;13.816;2023-10-13T00:06:49;101272.59;;;22.61
53512;BMP280;39392;52.832;13.816;2023-10-13T00:09:15;101274.63;;;22.59
53512;BMP280;39392;52.832;13.816;2023-10-13T00:11:42;101273.78;;;22.59
53512;BMP280;39392;52.832;13.816;2023-10-13T00:14:12;101274.63;;;22.59
53512;BMP280;39392;52.832;13.816;2023-10-13T00:16:43;101272.09;;;22.58
53512;BMP280;39392;52.832;13.816;2023-10-13T00:19:28;101262.03;;;22.58
53512;BMP280;39392;52.832;13.816;2023-10-13T00:21:54;101256.56;;;22.58
53512;BMP280;39392;52.832;13.816;2023-10-13T00:24:22;101259.28;;;22.58
53512;BMP280;39392;52.832;13.816;2023-10-13T00:26:55;101255.53;;;22.59
53512;BMP280;39392;52.832;13.816;2023-10-13T00:29:23;101252.59;;;22.61
53512;BMP280;39392;52.832;13.816;2023-10-13T00:31:56;101244.38;;;22.61
53512;BMP280;39392;52.832;13.816;2023-10-13T00:34:24;101247.81;;;22.63
53512;BMP280;39392;52.832;13.816;2023-10-13T00:36:58;101238.09;;;22.60
53512;BMP280;39392;52.832;13.816;2023-10-13T00:39:43;101240.16;;;22.58
53512;BMP280;39392;52.832;13.816;2023-10-13T00:42:13;101234.50;;;22.60
53512;BMP280;39392;52.832;13.816;2023-10-13T00:44:47;101236.19;;;22.61
53512;BMP280;39392;52.832;13.816;2023-10-13T00:47:19;101231.59;;;22.61
53512;BMP280;39392;52.832;13.816;2023-10-13T00:50:09;101239.81;;;22.61
53512;BMP280;39392;52.832;13.816;2023-10-13T00:52:41;101240.44;;;22.63
53512;BMP280;39392;52.832;13.816;2023-10-13T00:55:13;101229.53;;;22.63
53512;BMP280;39392;52.832;13.816;2023-10-13T00:57:40;101223.41;;;22.61
53512;BMP280;39392;52.832;13.816;2023-10-13T01:00:07;101218.97;;;22.60
53512;BMP280;39392;52.832;13.816;2023-10-13T01:02:52;101218.78;;;22.62
53512;BMP280;39392;52.832;13.816;2023-10-13T01:05:35;101221.31;;;22.63
53512;BMP280;39392;52.832;13.816;2023-10-13T01:08:03;101218.38;;;22.65
53512;BMP280;39392;52.832;13.816;2023-10-13T01:10:30;101219.22;;;22.66
53512;BMP280;39392;52.832;13.816;2023-10-13T01:12:59;101213.97;;;22.64
53512;BMP280;39392;52.832;13.816;2023-10-13T01:15:28;101215.50;;;22.67
53512;BMP280;39392;52.832;13.816;2023-10-13T01:18:09;101202.00;;;22.65
53512;BMP280;39392;52.832;13.816;2023-10-13T01:20:40;101214.81;;;22.65
53512;BMP280;39392;52.832;13.816;2023-10-13T01:23:12;101209.34;;;22.65
53512;BMP280;39392;52.832;13.816;2023-10-13T01:25:45;101212.75;;;22.67
53512;BMP280;39392;52.832;13.816;2023-10-13T01:28:12;101211.72;;;22.68
53512;BMP280;39392;52.832;13.816;2023-10-13T01:30:45;101203.72;;;22.66
53512;BMP280;39392;52.832;13.816;2023-10-13T01:33:17;101208.50;;;22.64
53512;BMP280;39392;52.832;13.816;2023-10-13T01:35:49;101206.44;;;22.66
53512;BMP280;39392;52.832;13.816;2023-10-13T01:38:17;101202.00;;;22.65
53512;BMP280;39392;52.832;13.816;2023-10-13T01:40:43;101196.53;;;22.65
53512;BMP280;39392;52.832;13.816;2023-10-13T01:43:10;101194.66;;;22.66
53512;BMP280;39392;52.832;13.816;2023-10-13T01:45:41;101200.78;;;22.68
53512;BMP280;39392;52.832;13.816;2023-10-13T01:48:16;101198.25;;;22.66
53512;BMP280;39392;52.832;13.816;2023-10-13T01:50:45;101186.44;;;22.66
53512;BMP280;39392;52.832;13.816;2023-10-13T01:53:21;101201.81;;;22.67
53512;BMP280;39392;52.832;13.816;2023-10-13T01:55:48;101207.28;;;22.67
53512;BMP280;39392;52.832;13.816;2023-10-13T01:58:16;101199.25;;;22.65
53512;BMP280;39392;52.832;13.816;2023-10-13T02:00:46;101203.72;;;22.66
53512;BMP280;39392;52.832;13.816;2023-10-13T02:03:14;101200.09;;;22.66
53512;BMP280;39392;52.832;13.816;2023-10-13T02:05:42;101202.84;;;22.66
53512;BMP280;39392;52.832;13.816;2023-10-13T02:08:15;101212.56;;;22.68
53512;BMP280;39392;52.832;13.816;2023-10-13T02:10:51;101200.97;;;22.66
53512;BMP280;39392;52.832;13.816;2023-10-13T02:13:19;101210.88;;;22.67
53512;BMP280;39392;52.832;13.816;2023-10-13T02:15:47;101200.59;;;22.69
53512;BMP280;39392;52.832;13.816;2023-10-13T02:18:15;101198.53;;;22.71
53512;BMP280;39392;52.832;13.816;2023-10-13T02:20:47;101193.06;;;22.71
53512;BMP280;39392;52.832;13.816;2023-10-13T02:23:21;101185.72;;;22.72
53512;BMP280;39392;52.832;13.816;2023-10-13T02:25:47;101181.94;;;22.73
53512;BMP280;39392;52.832;13.816;2023-10-13T02:28:14;101189.09;;;22.74
53512;BMP280;39392;52.832;13.816;2023-10-13T02:30:41;101184.66;;;22.73
53512;BMP280;39392;52.832;13.816;2023-10-13T02:33:12;101189.28;;;22.72
53512;BMP280;39392;52.832;13.816;2023-10-13T02:35:39;101190.50;;;22.70
53512;BMP280;39392;52.832;13.816;2023-10-13T02:38:09;101185.03;;;22.70
53512;BMP280;39392;52.832;13.816;2023-10-13T02:40:38;101182.31;;;22.70
53512;BMP280;39392;52.832;13.816;2023-10-13T02:43:05;101180.44;;;22.70
53512;BMP280;39392;52.832;13.816;2023-10-13T02:45:32;101171.38;;;22.70
53512;BMP280;39392;52.832;13.816;2023-10-13T02:47:59;101178.72;;;22.69
53512;BMP280;39392;52.832;13.816;2023-10-13T02:50:40;101166.94;;;22.69
53512;BMP280;39392;52.832;13.816;2023-10-13T02:53:10;101167.16;;;22.67
53512;BMP280;39392;52.832;13.816;2023-10-13T02:55:52;101172.63;;;22.67
53512;BMP280;39392;52.832;13.816;2023-10-13T02:58:19;101170.25;;;22.64
53512;BMP280;39392;52.832;13.816;2023-10-13T03:00:47;101162.91;;;22.65
53512;BMP280;39392;52.832;13.816;2023-10-13T03:03:14;101155.94;;;22.62
53512;BMP280;39392;52.832;13.816;2023-10-13T03:05:45;101150.66;;;22.60
53512;BMP280;39392;52.832;13.816;2023-10-13T03:08:11;101142.28;;;22.62
53512;BMP280;39392;52.832;13.816;2023-10-13T03:10:44;101131.38;;;22.62
53512;BMP280;39392;52.832;13.816;2023-10-13T03:13:14;101121.28;;;22.62
53512;BMP280;39392;52.832;13.816;2023-10-13T03:15:41;101119.19;;;22.65
53512;BMP280;39392;52.832;13.816;2023-10-13T03:18:08;101102.63;;;22.66
53512;BMP280;39392;52.832;13.816;2023-10-13T03:20:43;101122.38;;;22.68
53512;BMP280;39392;52.832;13.816;2023-10-13T03:23:10;101116.94;;;22.68
53512;BMP280;39392;52.832;13.816;2023-10-13T03:25:36;101107.03;;;22.67
53512;BMP280;39392;52.832;13.816;2023-10-13T03:28:09;101107.88;;;22.68
53512;BMP280;39392;52.832;13.816;2023-10-13T03:30:40;101101.59;;;22.67
53512;BMP280;39392;52.832;13.816;2023-10-13T03:33:10;101099.69;;;22.68
53512;BMP280;39392;52.832;13.816;2023-10-13T03:35:38;101094.03;;;22.69
53512;BMP280;39392;52.832;13.816;2023-10-13T03:38:09;101093.00;;;22.70
53512;BMP280;39392;52.832;13.816;2023-10-13T03:40:46;101095.75;;;22.70
53512;BMP280;39392;52.832;13.816;2023-10-13T03:43:15;101088.56;;;22.69
53512;BMP280;39392;52.832;13.816;2023-10-13T03:45:49;101083.94;;;22.70
53512;BMP280;39392;52.832;13.816;2023-10-13T03:48:19;101089.41;;;22.70
53512;BMP280;39392;52.832;13.816;2023-10-13T03:50:59;101086.88;;;22.68
53512;BMP280;39392;52.832;13.816;2023-10-13T03:53:42;101080.78;;;22.66
53512;BMP280;39392;52.832;13.816;2023-10-13T03:56:25;101080.78;;;22.66
53512;BMP280;39392;52.832;13.816;2023-10-13T03:58:58;101077.00;;;22.67
53512;BMP280;39392;52.832;13.816;2023-10-13T04:01:33;101076.78;;;22.69
53512;BMP280;39392;52.832;13.816;2023-10-13T04:04:18;101070.28;;;22.70
53512;BMP280;39392;52.832;13.816;2023-10-13T04:07:05;101063.97;;;22.69
53512;BMP280;39392;52.832;13.816;2023-10-13T04:09:31;101065.84;;;22.69
53512;BMP280;39392;52.832;13.816;2023-10-13T04:12:02;101065.84;;;22.69
53512;BMP280;39392;52.832;13.816;2023-10-13T04:17:14;101056.63;;;22.70
53512;BMP280;39392;52.832;13.816;2023-10-13T04:19:44;101062.28;;;22.68
53512;BMP280;39392;52.832;13.816;2023-10-13T04:22:29;101048.81;;;22.67
53512;BMP280;39392;52.832;13.816;2023-10-13T04:25:20;101042.53;;;22.66
53512;BMP280;39392;52.832;13.816;2023-10-13T04:28:02;101041.66;;;22.66
53512;BMP280;39392;52.832;13.816;2023-10-13T04:33:25;101036.19;;;22.66
53512;BMP280;39392;52.832;13.816;2023-10-13T04:36:10;101032.59;;;22.65
53512;BMP280;39392;52.832;13.816;2023-10-13T04:38:41;101029.50;;;22.68
53512;BMP280;39392;52.832;13.816;2023-10-13T04:41:26;101022.97;;;22.69
53512;BMP280;39392;52.832;13.816;2023-10-13T04:46:50;101011.41;;;22.67
53512;BMP280;39392;52.832;13.816;2023-10-13T04:49:18;101005.97;;;22.67
53512;BMP280;39392;52.832;13.816;2023-10-13T04:52:04;101005.97;;;22.67
53512;BMP280;39392;52.832;13.816;2023-10-13T04:54:38;101011.88;;;22.71
53512;BMP280;39392;52.832;13.816;2023-10-13T04:57:12;101007.25;;;22.71
53512;BMP280;39392;52.832;13.816;2023-10-13T04:59:57;101004.53;;;22.71
53512;BMP280;39392;52.832;13.816;2023-10-13T05:02:30;101011.69;;;22.72
53512;BMP280;39392;52.832;13.816;2023-10-13T05:05:03;101008.94;;;22.72
53512;BMP280;39392;52.832;13.816;2023-10-13T05:07:32;101006.69;;;22.76
53512;BMP280;39392;52.832;13.816;2023-10-13T05:10:18;101001.41;;;22.74
53512;BMP280;39392;52.832;13.816;2023-10-13T05:13:14;101003.94;;;22.76
53512;BMP280;39392;52.832;13.816;2023-10-13T05:15:59;101000.53;;;22.74
53512;BMP280;39392;52.832;13.816;2023-10-13T05:18:44;100995.94;;;22.74
53512;BMP280;39392;52.832;13.816;2023-10-13T05:21:30;100991.31;;;22.75
53512;BMP280;39392;52.832;13.816;2023-10-13T05:24:14;100989.63;;;22.74
53512;BMP280;39392;52.832;13.816;2023-10-13T05:26:59;100989.63;;;22.74
53512;BMP280;39392;52.832;13.816;2023-10-13T05:29:45;100993.22;;;22.74
53512;BMP280;39392;52.832;13.816;2023-10-13T05:32:31;100990.50;;;22.74
53512;BMP280;39392;52.832;13.816;2023-10-13T05:35:16;100981.25;;;22.75
53512;BMP280;39392;52.832;13.816;2023-10-13T05:38:01;100979.56;;;22.74
53512;BMP280;39392;52.832;13.816;2023-10-13T05:41:06;100980.41;;;22.75
53512;BMP280;39392;52.832;13.816;2023-10-13T05:43:51;100986.50;;;22.77
53512;BMP280;39392;52.832;13.816;2023-10-13T05:46:37;100994.06;;;22.75
53512;BMP280;39392;52.832;13.816;2023-10-13T05:49:07;100998.28;;;22.77
53512;BMP280;39392;52.832;13.816;2023-10-13T05:51:43;100991.97;;;22.77
53512;BMP280;39392;52.832;13.816;2023-10-13T05:54:14;100988.84;;;22.80
53512;BMP280;39392;52.832;13.816;2023-10-13T05:59:33;100990.53;;;22.81
53512;BMP280;39392;52.832;13.816;2023-10-13T06:02:19;100979.81;;;22.79
53512;BMP280;39392;52.832;13.816;2023-10-13T06:05:11;100986.13;;;22.80
53512;BMP280;39392;52.832;13.816;2023-10-13T06:07:57;100976.03;;;22.80
53512;BMP280;39392;52.832;13.816;2023-10-13T06:10:43;100977.72;;;22.81
53512;BMP280;39392;52.832;13.816;2023-10-13T06:13:28;100974.97;;;22.81
53512;BMP280;39392;52.832;13.816;2023-10-13T06:16:14;100975.81;;;22.82
53512;BMP280;39392;52.832;13.816;2023-10-13T06:18:59;100982.34;;;22.81
53512;BMP280;39392;52.832;13.816;2023-10-13T06:21:45;100967.84;;;22.80
53512;BMP280;39392;52.832;13.816;2023-10-13T06:24:30;100973.09;;;22.82
53512;BMP280;39392;52.832;13.816;2023-10-13T06:27:15;100959.63;;;22.80
53512;BMP280;39392;52.832;13.816;2023-10-13T06:30:01;100950.59;;;22.80
53512;BMP280;39392;52.832;13.816;2023-10-13T06:32:28;100945.75;;;22.82
53512;BMP280;39392;52.832;13.816;2023-10-13T06:34:55;100951.06;;;22.83
53512;BMP280;39392;52.832;13.816;2023-10-13T06:37:31;100950.84;;;22.85
53512;BMP280;39392;52.832;13.816;2023-10-13T06:40:00;100948.09;;;22.85
53512;BMP280;39392;52.832;13.816;2023-10-13T06:42:35;100952.34;;;22.87
53512;BMP280;39392;52.832;13.816;2023-10-13T06:45:06;100952.13;;;22.89
53512;BMP280;39392;52.832;13.816;2023-10-13T06:47:35;100952.13;;;22.89
53512;BMP280;39392;52.832;13.816;2023-10-13T06:52:51;100951.13;;;22.90
53512;BMP280;39392;52.832;13.816;2023-10-13T06:55:21;100937.47;;;22.90
53512;BMP280;39392;52.832;13.816;2023-10-13T06:57:55;100945.00;;;22.88
53512;BMP280;39392;52.832;13.816;2023-10-13T07:00:27;100936.59;;;22.90
53512;BMP280;39392;52.832;13.816;2023-10-13T07:02:56;100934.91;;;22.88
53512;BMP280;39392;52.832;13.816;2023-10-13T07:05:34;100934.06;;;22.88
53512;BMP280;39392;52.832;13.816;2023-10-13T07:08:01;100934.22;;;22.86
53512;BMP280;39392;52.832;13.816;2023-10-13T07:10:30;100929.44;;;22.88
53512;BMP280;39392;52.832;13.816;2023-10-13T07:13:05;100925.84;;;22.88
53512;BMP280;39392;52.832;13.816;2023-10-13T07:15:34;100921.63;;;22.85
53512;BMP280;39392;52.832;13.816;2023-10-13T07:18:06;100922.47;;;22.86
53512;BMP280;39392;52.832;13.816;2023-10-13T07:20:32;100922.06;;;22.89
53512;BMP280;39392;52.832;13.816;2023-10-13T07:23:00;100919.16;;;22.91
53512;BMP280;39392;52.832;13.816;2023-10-13T07:25:30;100922.78;;;22.91
53512;BMP280;39392;52.832;13.816;2023-10-13T07:28:08;100911.41;;;22.94
53512;BMP280;39392;52.832;13.816;2023-10-13T07:30:35;100911.41;;;22.94
53512;BMP280;39392;52.832;13.816;2023-10-13T07:33:20;100909.34;;;22.96
53512;BMP280;39392;52.832;13.816;2023-10-13T07:35:47;100905.56;;;22.97
53512;BMP280;39392;52.832;13.816;2023-10-13T07:38:18;100898.22;;;22.98
53512;BMP280;39392;52.832;13.816;2023-10-13T07:40:47;100900.75;;;22.99
53512;BMP280;39392;52.832;13.816;2023-10-13T07:43:20;100906.84;;;23.01
53512;BMP280;39392;52.832;13.816;2023-10-13T07:45:48;100905.63;;;23.04
53512;BMP280;39392;52.832;13.816;2023-10-13T07:48:18;100901.19;;;23.03
53512;BMP280;39392;52.832;13.816;2023-10-13T07:50:47;100907.53;;;23.03
53512;BMP280;39392;52.832;13.816;2023-10-13T07:53:15;100897.44;;;23.04
53512;BMP280;39392;52.832;13.816;2023-10-13T07:55:50;100901.84;;;23.05
53512;BMP280;39392;52.832;13.816;2023-10-13T07:58:23;100887.34;;;23.04
53512;BMP280;39392;52.832;13.816;2023-10-13T08:00:52;100893.44;;;23.06
53512;BMP280;39392;52.832;13.816;2023-10-13T08:03:24;100894.28;;;23.07
53512;BMP280;39392;52.832;13.816;2023-10-13T08:06:17;100887.78;;;23.08
53512;BMP280;39392;52.832;13.816;2023-10-13T08:08:47;100885.06;;;23.08
53512;BMP280;39392;52.832;13.816;2023-10-13T08:11:17;100888.63;;;23.08
53512;BMP280;39392;52.832;13.816;2023-10-13T08:13:46;100881.91;;;23.11
53512;BMP280;39392;52.832;13.816;2023-10-13T08:16:31;100888.19;;;23.11
53512;BMP280;39392;52.832;13.816;2023-10-13T08:19:17;100881.50;;;23.14
53512;BMP280;39392;52.832;13.816;2023-10-13T08:21:45;100876.88;;;23.15
53512;BMP280;39392;52.832;13.816;2023-10-13T08:24:50;100872.25;;;23.15
53512;BMP280;39392;52.832;13.816;2023-10-13T08:27:21;100873.97;;;23.16
53512;BMP280;39392;52.832;13.816;2023-10-13T08:29:59;100866.78;;;23.15
53512;BMP280;39392;52.832;13.816;2023-10-13T08:32:29;100862.16;;;23.16
53512;BMP280;39392;52.832;13.816;2023-10-13T08:34:56;100868.50;;;23.16
53512;BMP280;39392;52.832;13.816;2023-10-13T08:37:35;100856.91;;;23.14
53512;BMP280;39392;52.832;13.816;2023-10-13T08:40:22;100858.56;;;23.15
53512;BMP280;39392;52.832;13.816;2023-10-13T08:43:10;100862.38;;;23.14
53512;BMP280;39392;52.832;13.816;2023-10-13T08:45:41;100856.91;;;23.14
53512;BMP280;39392;52.832;13.816;2023-10-13T08:48:11;100858.56;;;23.15
53512;BMP280;39392;52.832;13.816;2023-10-13T08:50:48;100851.44;;;23.14
53512;BMP280;39392;52.832;13.816;2023-10-13T08:53:22;100850.59;;;23.14
53512;BMP280;39392;52.832;13.816;2023-10-13T08:56:11;100839.88;;;23.12
53512;BMP280;39392;52.832;13.816;2023-10-13T09:01:24;100839.66;;;23.14
53512;BMP280;39392;52.832;13.816;2023-10-13T09:04:10;100831.66;;;23.12
53512;BMP280;39392;52.832;13.816;2023-10-13T09:07:05;100832.06;;;23.09
53512;BMP280;39392;52.832;13.816;2023-10-13T09:09:50;100817.53;;;23.08
53512;BMP280;39392;52.832;13.816;2023-10-13T09:12:18;100812.09;;;23.08
53512;BMP280;39392;52.832;13.816;2023-10-13T09:15:01;100815.88;;;23.07
53512;BMP280;39392;52.832;13.816;2023-10-13T09:17:50;100815.88;;;23.07
53512;BMP280;39392;52.832;13.816;2023-10-13T09:20:17;100812.72;;;23.10
53512;BMP280;39392;52.832;13.816;2023-10-13T09:23:09;100813.97;;;23.08
53512;BMP280;39392;52.832;13.816;2023-10-13T09:25:38;100798.41;;;23.08
53512;BMP280;39392;52.832;13.816;2023-10-13T09:28:20;100800.31;;;23.08
53512;BMP280;39392;52.832;13.816;2023-10-13T09:30:52;100795.69;;;23.08
53512;BMP280;39392;52.832;13.816;2023-10-13T09:33:23;100788.94;;;23.11
53512;BMP280;39392;52.832;13.816;2023-10-13T09:35:59;100797.97;;;23.11
53512;BMP280;39392;52.832;13.816;2023-10-13T09:38:29;100799.03;;;23.10
53512;BMP280;39392;52.832;13.816;2023-10-13T09:40:57;100796.97;;;23.13
53512;BMP280;39392;52.832;13.816;2023-10-13T09:43:24;100793.16;;;23.14
53512;BMP280;39392;52.832;13.816;2023-10-13T09:45:55;100774.88;;;23.14
53512;BMP280;39392;52.832;13.816;2023-10-13T09:48:35;100771.31;;;23.14
53512;BMP280;39392;52.832;13.816;2023-10-13T09:51:03;100770.47;;;23.13
53512;BMP280;39392;52.832;13.816;2023-10-13T09:53:33;100763.31;;;23.12
53512;BMP280;39392;52.832;13.816;2023-10-13T09:56:06;100758.03;;;23.10
53512;BMP280;39392;52.832;13.816;2023-10-13T09:58:53;100747.09;;;23.10
53512;BMP280;39392;52.832;13.816;2023-10-13T10:01:24;100740.78;;;23.10
53512;BMP280;39392;52.832;13.816;2023-10-13T10:04:10;100732.81;;;23.08
53512;BMP280;39392;52.832;13.816;2023-10-13T10:06:57;100729.00;;;23.09
53512;BMP280;39392;52.832;13.816;2023-10-13T10:09:28;100735.31;;;23.10
53512;BMP280;39392;52.832;13.816;2023-10-13T10:12:05;100729.84;;;23.10
53512;BMP280;39392;52.832;13.816;2023-10-13T10:17:06;100714.94;;;23.13
53512;BMP280;39392;52.832;13.816;2023-10-13T10:19:46;100714.94;;;23.13
53512;BMP280;39392;52.832;13.816;2023-10-13T10:22:13;100714.94;;;23.13
53512;BMP280;39392;52.832;13.816;2023-10-13T10:24:56;100712.41;;;23.11
53512;BMP280;39392;52.832;13.816;2023-10-13T10:27:30;100702.50;;;23.10
53512;BMP280;39392;52.832;13.816;2023-10-13T10:29:57;100701.91;;;23.08
53512;BMP280;39392;52.832;13.816;2023-10-13T10:35:06;100698.94;;;23.09
53512;BMP280;39392;52.832;13.816;2023-10-13T10:37:34;100697.06;;;23.10
53512;BMP280;39392;52.832;13.816;2023-10-13T10:40:01;100688.84;;;23.10
53512;BMP280;39392;52.832;13.816;2023-10-13T10:42:32;100688.00;;;23.09
53512;BMP280;39392;52.832;13.816;2023-10-13T10:44:58;100680.88;;;23.08
53512;BMP280;39392;52.832;13.816;2023-10-13T10:47:31;100678.31;;;23.07
53512;BMP280;39392;52.832;13.816;2023-10-13T10:49:59;100692.19;;;23.05
53512;BMP280;39392;52.832;13.816;2023-10-13T10:52:33;100681.25;;;23.05
53512;BMP280;39392;52.832;13.816;2023-10-13T10:55:03;100682.94;;;23.06
53512;BMP280;39392;52.832;13.816;2023-10-13T10:57:33;100681.03;;;23.07
53512;BMP280;39392;52.832;13.816;2023-10-13T11:00:04;100702.06;;;23.06
53512;BMP280;39392;52.832;13.816;2023-10-13T11:02:41;100682.09;;;23.06
53512;BMP280;39392;52.832;13.816;2023-10-13T11:05:07;100674.13;;;23.04
53512;BMP280;39392;52.832;13.816;2023-10-13T11:07:36;100664.25;;;23.03
53512;BMP280;39392;52.832;13.816;2023-10-13T11:10:07;100652.88;;;23.00
53512;BMP280;39392;52.832;13.816;2023-10-13T11:12:41;100650.97;;;23.00
53512;BMP280;39392;52.832;13.816;2023-10-13T11:15:09;100632.47;;;23.02
53512;BMP280;39392;52.832;13.816;2023-10-13T11:17:49;100642.38;;;23.03
53512;BMP280;39392;52.832;13.816;2023-10-13T11:20:21;100636.03;;;23.03
53512;BMP280;39392;52.832;13.816;2023-10-13T11:23:10;100642.38;;;23.03
53512;BMP280;39392;52.832;13.816;2023-10-13T11:25:37;100635.19;;;23.02
53512;BMP280;39392;52.832;13.816;2023-10-13T11:28:14;100630.78;;;23.01
53512;BMP280;39392;52.832;13.816;2023-10-13T11:30:44;100629.94;;;23.01
53512;BMP280;39392;52.832;13.816;2023-10-13T11:33:17;100625.31;;;23.01
53512;BMP280;39392;52.832;13.816;2023-10-13T11:35:55;100608.09;;;23.01
53512;BMP280;39392;52.832;13.816;2023-10-13T11:38:23;100609.97;;;23.00
53512;BMP280;39392;52.832;13.816;2023-10-13T11:43:35;100600.72;;;23.01
53512;BMP280;39392;52.832;13.816;2023-10-13T11:46:20;100597.97;;;23.01
53512;BMP280;39392;52.832;13.816;2023-10-13T11:54:19;100572.78;;;22.99
53512;BMP280;39392;52.832;13.816;2023-10-13T11:56:46;100574.44;;;23.00
53512;BMP280;39392;52.832;13.816;2023-10-13T11:59:13;100563.28;;;23.02
53512;BMP280;39392;52.832;13.816;2023-10-13T12:01:45;100555.94;;;23.02
53512;BMP280;39392;52.832;13.816;2023-10-13T12:04:30;100573.16;;;23.03
53512;BMP280;39392;52.832;13.816;2023-10-13T12:07:15;100571.09;;;23.05
53512;BMP280;39392;52.832;13.816;2023-10-13T12:10:11;100568.56;;;23.03
53512;BMP280;39392;52.832;13.816;2023-10-13T12:13:00;100560.78;;;23.07
53512;BMP280;39392;52.832;13.816;2023-10-13T12:15:32;100561.63;;;23.07
53512;BMP280;39392;52.832;13.816;2023-10-13T12:18:15;100557.84;;;23.08
53512;BMP280;39392;52.832;13.816;2023-10-13T12:20:42;100555.31;;;23.07
53512;BMP280;39392;52.832;13.816;2023-10-13T12:23:12;100535.56;;;23.05
53512;BMP280;39392;52.832;13.816;2023-10-13T12:25:43;100541.25;;;23.03
53512;BMP280;39392;52.832;13.816;2023-10-13T12:28:26;100531.34;;;23.02
53512;BMP280;39392;52.832;13.816;2023-10-13T12:31:02;100534.50;;;23.06
53512;BMP280;39392;52.832;13.816;2023-10-13T12:33:30;100539.78;;;23.07
53512;BMP280;39392;52.832;13.816;2023-10-13T12:36:10;100527.97;;;23.07
53512;BMP280;39392;52.832;13.816;2023-10-13T12:38:41;100518.94;;;23.06
53512;BMP280;39392;52.832;13.816;2023-10-13T12:41:14;100510.53;;;23.08
53512;BMP280;39392;52.832;13.816;2023-10-13T12:44:02;100516.00;;;23.08
53512;BMP280;39392;52.832;13.816;2023-10-13T12:46:48;100510.31;;;23.03
53512;BMP280;39392;52.832;13.816;2023-10-13T12:49:34;100508.44;;;23.03
53512;BMP280;39392;52.832;13.816;2023-10-13T12:52:10;100499.19;;;23.04
53512;BMP280;39392;52.832;13.816;2023-10-13T12:54:45;100497.28;;;23.05
53512;BMP280;39392;52.832;13.816;2023-10-13T12:57:32;100494.56;;;23.05
53512;BMP280;39392;52.832;13.816;2023-10-13T12:59:59;100488.88;;;23.06
53512;BMP280;39392;52.832;13.816;2023-10-13T13:02:27;100475.84;;;23.08
53512;BMP280;39392;52.832;13.816;2023-10-13T13:04:54;100478.34;;;23.10
53512;BMP280;39392;52.832;13.816;2023-10-13T13:07:28;100477.28;;;23.11
53512;BMP280;39392;52.832;13.816;2023-10-13T13:09:56;100472.28;;;23.08
53512;BMP280;39392;52.832;13.816;2023-10-13T13:12:25;100471.00;;;23.10
53512;BMP280;39392;52.832;13.816;2023-10-13T13:14:51;100456.25;;;23.11
53512;BMP280;39392;52.832;13.816;2023-10-13T13:17:21;100450.81;;;23.11
53512;BMP280;39392;52.832;13.816;2023-10-13T13:19:48;100447.22;;;23.11
53512;BMP280;39392;52.832;13.816;2023-10-13T13:22:15;100434.22;;;23.13
53512;BMP280;39392;52.832;13.816;2023-10-13T13:24:43;100432.31;;;23.14
53512;BMP280;39392;52.832;13.816;2023-10-13T13:27:10;100438.63;;;23.14
53512;BMP280;39392;52.832;13.816;2023-10-13T13:29:43;100432.91;;;23.16
53512;BMP280;39392;52.832;13.816;2023-10-13T13:32:09;100426.84;;;23.14
53512;BMP280;39392;52.832;13.816;2023-10-13T13:34:51;100423.69;;;23.17
53512;BMP280;39392;52.832;13.816;2023-10-13T13:37:34;100428.31;;;23.16
53512;BMP280;39392;52.832;13.816;2023-10-13T13:40:03;100404.56;;;23.17
53512;BMP280;39392;52.832;13.816;2023-10-13T13:42:42;100411.06;;;23.16
53512;BMP280;39392;52.832;13.816;2023-10-13T13:45:13;100398.25;;;23.16
53512;BMP280;39392;52.832;13.816;2023-10-13T13:47:50;100391.50;;;23.19
53512;BMP280;39392;52.832;13.816;2023-10-13T13:50:21;100391.50;;;23.19
53512;BMP280;39392;52.832;13.816;2023-10-13T13:52:51;100387.72;;;23.20
53512;BMP280;39392;52.832;13.816;2023-10-13T13:55:19;100388.56;;;23.20
53512;BMP280;39392;52.832;13.816;2023-10-13T13:57:46;100389.41;;;23.21
53512;BMP280;39392;52.832;13.816;2023-10-13T14:00:13;100387.50;;;23.21
53512;BMP280;39392;52.832;13.816;2023-10-13T14:02:43;100387.50;;;23.21
53512;BMP280;39392;52.832;13.816;2023-10-13T14:05:14;100381.81;;;23.23
53512;BMP280;39392;52.832;13.816;2023-10-13T14:07:44;100387.09;;;23.24
53512;BMP280;39392;52.832;13.816;2023-10-13T14:10:17;100378.03;;;23.24
53512;BMP280;39392;52.832;13.816;2023-10-13T14:12:59;100375.28;;;23.24
53512;BMP280;39392;52.832;13.816;2023-10-13T14:15:35;100367.97;;;23.24
53512;BMP280;39392;52.832;13.816;2023-10-13T14:18:10;100366.25;;;23.23
53512;BMP280;39392;52.832;13.816;2023-10-13T14:20:45;100362.69;;;23.23
53512;BMP280;39392;52.832;13.816;2023-10-13T14:23:12;100367.09;;;23.24
53512;BMP280;39392;52.832;13.816;2023-10-13T14:25:38;100361.44;;;23.25
53512;BMP280;39392;52.832;13.816;2023-10-13T14:28:05;100354.28;;;23.24
53512;BMP280;39392;52.832;13.816;2023-10-13T14:30:33;100342.28;;;23.25
53512;BMP280;39392;52.832;13.816;2023-10-13T14:32:59;100345.22;;;23.24
53512;BMP280;39392;52.832;13.816;2023-10-13T14:35:26;100336.19;;;23.23
53512;BMP280;39392;52.832;13.816;2023-10-13T14:37:52;100327.78;;;23.25
53512;BMP280;39392;52.832;13.816;2023-10-13T14:40:19;100323.34;;;23.24
53512;BMP280;39392;52.832;13.816;2023-10-13T14:42:48;100330.53;;;23.25
53512;BMP280;39392;52.832;13.816;2023-10-13T14:45:14;100318.75;;;23.24
53512;BMP280;39392;52.832;13.816;2023-10-13T14:47:44;100312.41;;;23.24
53512;BMP280;39392;52.832;13.816;2023-10-13T14:50:11;100319.59;;;23.25
53512;BMP280;39392;52.832;13.816;2023-10-13T14:52:48;100306.09;;;23.23